Time;durP1;ratioP1;P1;durP2;ratioP2;P2;SDS_P1;SDS_P2;PMS_P1;PMS_P2;Temp;Humidity;BMP_temperature;BMP_pressure;BME280_temperature;BME280_humidity;BME280_pressure;Samples;Min_cycle;Max_cycle;Signal;HPM_P1;HPM_P2
2022/09/26 00:01:30;;;;;;;10.03;9.53;;;;;;;16.24;100.00;1090.31;5094251;28;20180;-63
2022/09/26 00:04:00;;;;;;;10.53;9.70;;;;;;;16.13;100.00;-844.84;5093772;28;20227;-63
2022/09/26 00:06:28;;;;;;;10.33;9.83;;;;;;;15.95;100.00;-1489.91;5093766;28;20184;-62
2022/09/26 00:08:56;;;;;;;10.83;9.80;;;;;;;15.65;100.00;-5352.44;5093952;28;20666;-63
2022/09/26 00:11:24;;;;;;;11.67;10.70;;;;;;;15.31;100.00;-6315.50;5093940;28;20237;-63
2022/09/26 00:13:53;;;;;;;10.83;9.97;;;;;;;15.04;100.00;-11770.16;5093901;28;20555;-62
2022/09/26 00:16:20;;;;;;;12.40;9.73;;;;;;;14.85;100.00;-14331.09;5093958;28;20192;-63
2022/09/26 00:18:49;;;;;;;12.30;10.37;;;;;;;15.05;100.00;-18179.22;5093499;28;20706;-63
2022/09/26 00:21:17;;;;;;;8.93;8.43;;;;;;;14.82;100.00;-14330.47;5093531;28;20180;-62
2022/09/26 00:23:45;;;;;;;9.97;9.37;;;;;;;14.74;100.00;-12086.47;5093445;28;20229;-62
2022/09/26 00:26:14;;;;;;;10.07;9.27;;;;;;;14.58;100.00;-13685.97;5093645;28;20184;-62
2022/09/26 00:28:41;;;;;;;11.10;10.20;;;;;;;14.64;100.00;-14967.72;5093565;28;20187;-63
2022/09/26 00:31:09;;;;;;;11.27;10.37;;;;;;;14.73;100.00;-16249.94;5093551;28;20230;-62
2022/09/26 00:33:38;;;;;;;10.33;9.60;;;;;;;14.23;100.00;-16559.25;5093307;28;20274;-63
2022/09/26 00:36:06;;;;;;;10.03;9.47;;;;;;;14.09;100.00;-16556.34;5093197;28;20190;-63
2022/09/26 00:38:33;;;;;;;9.93;9.43;;;;;;;14.14;100.00;-17196.81;5093123;28;20271;-63
2022/09/26 00:41:02;;;;;;;11.20;10.17;;;;;;;14.14;100.00;-18157.69;5093073;28;20198;-62
2022/09/26 00:43:30;;;;;;;11.03;10.20;;;;;;;14.11;100.00;-18156.84;5093017;28;20554;-62
2022/09/26 00:46:02;;;;;;;10.90;10.30;;;;;;;14.04;100.00;-18155.28;5093364;28;20196;-63
2022/09/26 00:48:30;;;;;;;10.40;10.00;;;;;;;13.97;100.00;-18153.59;5093237;28;20630;-62
2022/09/26 00:50:58;;;;;;;12.53;10.53;;;;;;;13.98;100.00;-18153.84;5093227;28;20686;-63
2022/09/26 00:53:31;;;;;;;13.77;11.13;;;;;;;13.96;100.00;-18153.34;5092859;28;20184;-62
2022/09/26 00:56:06;;;;;;;11.27;10.67;;;;;;;13.85;100.00;-17509.94;5093035;28;20190;-62
2022/09/26 00:58:40;;;;;;;13.20;12.47;;;;;;;13.84;100.00;-17829.03;5092632;28;20211;-62
2022/09/26 01:01:08;;;;;;;12.97;11.97;;;;;;;13.55;100.00;-18143.50;5075214;28;20183;-62
2022/09/26 01:03:38;;;;;;;12.90;11.80;;;;;;;13.31;100.00;-18137.84;5092979;28;20635;-63
2022/09/26 01:06:05;;;;;;;14.60;13.70;;;;;;;13.64;100.00;-18145.78;5093009;28;20184;-63
2022/09/26 01:08:38;;;;;;;16.10;12.90;;;;;;;13.61;100.00;-18145.06;5093018;28;20180;-62
2022/09/26 01:11:08;;;;;;;23.70;13.47;;;;;;;13.62;100.00;-18145.19;5092476;28;20208;-63
2022/09/26 01:13:37;;;;;;;12.87;11.53;;;;;;;13.43;100.00;-18140.59;5092498;28;20200;-63
2022/09/26 01:16:05;;;;;;;12.97;11.63;;;;;;;13.31;100.00;-18137.72;5092874;28;20212;-63
2022/09/26 01:18:31;;;;;;;12.77;11.80;;;;;;;13.28;100.00;-18137.13;5092578;28;20606;-62
2022/09/26 01:21:07;;;;;;;12.03;11.13;;;;;;;13.18;100.00;-18134.81;5092376;28;20180;-63
2022/09/26 01:24:01;;;;;;;13.10;11.90;;;;;;;13.35;100.00;-18138.69;5092728;28;20234;-62
2022/09/26 01:26:48;;;;;;;13.13;12.27;;;;;;;13.33;100.00;-18138.19;5092325;28;20187;-62
2022/09/26 01:29:44;;;;;;;15.73;11.47;;;;;;;13.22;100.00;-18135.78;5092199;28;20275;-63
2022/09/26 01:35:14;;;;;;;12.17;11.20;;;;;;;13.06;100.00;-18131.81;5092340;28;20183;-62
2022/09/26 01:37:53;;;;;;;12.77;11.77;;;;;;;13.06;100.00;-18131.94;5092466;28;20190;-62
2022/09/26 01:40:25;;;;;;;13.47;12.20;;;;;;;13.11;100.00;-18133.03;5092423;28;20621;-63
2022/09/26 01:43:05;;;;;;;12.77;11.83;;;;;;;13.31;100.00;-18137.72;5092077;28;20184;-62
2022/09/26 01:45:44;;;;;;;12.60;11.63;;;;;;;13.49;100.00;-18142.06;5092101;28;20188;-63
2022/09/26 01:48:17;;;;;;;12.97;11.70;;;;;;;13.18;100.00;-18134.81;5091950;28;20183;-62
2022/09/26 01:50:50;;;;;;;13.47;12.27;;;;;;;12.95;100.00;-18129.28;5091913;28;20269;-63
2022/09/26 01:53:22;;;;;;;13.43;11.93;;;;;;;12.92;100.00;-18128.44;5092435;28;20192;-63
2022/09/26 01:55:54;;;;;;;14.43;12.13;;;;;;;12.69;100.00;-18123.03;5091999;28;20188;-62
2022/09/26 01:58:28;;;;;;;15.40;12.10;;;;;;;12.54;100.00;-18119.41;5091938;28;20180;-63
2022/09/26 02:00:58;;;;;;;13.80;12.47;;;;;;;12.39;100.00;-18115.78;5092138;28;20179;-62
2022/09/26 02:03:31;;;;;;;13.73;12.23;;;;;;;12.35;100.00;-18115.06;5091813;28;20184;-62
2022/09/26 02:06:02;;;;;;;12.43;11.37;;;;;;;12.38;100.00;-18115.66;5092284;28;20584;-62
2022/09/26 02:08:36;;;;;;;13.27;12.10;;;;;;;12.35;100.00;-18115.06;5091742;28;20183;-63
2022/09/26 02:11:11;;;;;;;11.97;11.20;;;;;;;12.49;100.00;-18118.31;5093605;28;20204;-63
2022/09/26 02:13:45;;;;;;;11.83;11.03;;;;;;;12.55;100.00;-18119.66;5096025;28;20290;-62
2022/09/26 02:16:19;;;;;;;13.00;12.00;;;;;;;12.48;100.00;-18117.97;5095948;28;20210;-62
2022/09/26 02:18:52;;;;;;;12.13;11.43;;;;;;;12.12;100.00;-18109.53;5095722;28;20237;-62
2022/09/26 02:21:22;;;;;;;12.30;11.50;;;;;;;12.35;100.00;-18115.06;5096199;28;20532;-62
2022/09/26 02:23:50;;;;;;;11.77;11.20;;;;;;;12.31;100.00;-18114.09;5096201;28;20206;-62
2022/09/26 02:26:18;;;;;;;12.20;11.37;;;;;;;12.21;100.00;-18111.56;5095895;28;20183;-62
2022/09/26 02:28:45;;;;;;;12.60;11.17;;;;;;;12.17;100.00;-18110.59;5095740;28;20184;-63
2022/09/26 02:31:19;;;;;;;13.23;11.83;;;;;;;11.85;100.00;-18103.00;5095617;28;20273;-63
2022/09/26 02:33:49;;;;;;;18.97;13.50;;;;;;;11.75;100.00;-18100.59;5096102;28;20180;-62
2022/09/26 02:36:18;;;;;;;12.23;11.40;;;;;;;11.78;100.00;-18101.44;5095938;28;20191;-62
2022/09/26 02:38:45;;;;;;;12.83;11.63;;;;;;;11.81;100.00;-18102.16;5096230;28;20184;-64
2022/09/26 02:41:21;;;;;;;14.73;13.17;;;;;;;11.93;100.00;-18104.94;5096545;28;20214;-62
2022/09/26 02:44:09;;;;;;;12.60;11.67;;;;;;;12.01;100.00;-18106.88;5096401;28;20195;-63
2022/09/26 02:46:52;;;;;;;13.67;12.33;;;;;;;12.20;100.00;-18111.44;5096152;28;20188;-62
2022/09/26 02:49:38;;;;;;;12.70;11.80;;;;;;;12.14;100.00;-18109.88;5079898;28;20195;-62
2022/09/26 02:52:20;;;;;;;12.53;11.43;;;;;;;12.27;100.00;-18113.00;5095995;28;20577;-62
2022/09/26 02:54:58;;;;;;;12.30;11.40;;;;;;;12.17;100.00;-18108.88;5096041;28;20184;-63
2022/09/26 02:57:37;;;;;;;13.33;11.80;;;;;;;12.17;100.00;-17153.00;5096236;28;20190;-63
2022/09/26 03:00:08;;;;;;;11.90;11.17;;;;;;;12.13;100.00;-15239.66;5096431;28;20563;-63
2022/09/26 03:02:40;;;;;;;11.37;10.57;;;;;;;12.28;100.00;-14923.56;5096131;28;20248;-62
2022/09/26 03:05:13;;;;;;;10.70;10.03;;;;;;;12.28;100.00;-12690.31;5095872;28;20188;-63
2022/09/26 03:07:45;;;;;;;11.67;10.83;;;;;;;12.35;100.00;-13010.56;5095636;28;20184;-62
2022/09/26 03:10:13;;;;;;;11.40;10.40;;;;;;;12.49;100.00;-13331.84;5096086;28;20271;-63
2022/09/26 03:12:43;;;;;;;11.43;10.73;;;;;;;12.38;100.00;-13010.97;5095726;28;20210;-63
2022/09/26 03:15:11;;;;;;;11.40;10.60;;;;;;;12.40;100.00;-11414.88;5095952;28;20689;-61
2022/09/26 03:17:42;;;;;;;10.73;10.07;;;;;;;12.47;100.00;-10777.03;5095798;28;20199;-62
2022/09/26 03:20:14;;;;;;;11.13;10.53;;;;;;;12.36;100.00;-11095.13;5096084;28;20278;-63
2022/09/26 03:22:42;;;;;;;11.27;10.57;;;;;;;12.16;100.00;-11411.75;5095251;28;20196;-62
2022/09/26 03:25:18;;;;;;;12.97;11.63;;;;;;;12.11;100.00;-12049.50;5096008;28;20192;-63
2022/09/26 03:27:46;;;;;;;11.77;10.77;;;;;;;12.16;100.00;-11730.97;5095647;28;20607;-62
2022/09/26 03:30:15;;;;;;;11.77;10.60;;;;;;;12.19;100.00;-11092.91;5095150;28;20221;-63
2022/09/26 03:32:43;;;;;;;16.10;11.37;;;;;;;11.96;100.00;-10451.63;5094895;28;20204;-63
2022/09/26 03:35:12;;;;;;;13.00;11.50;;;;;;;12.19;100.00;-9496.22;5094780;28;20699;-62
2022/09/26 03:37:39;;;;;;;12.53;11.03;;;;;;;12.23;100.00;-9177.16;5094413;28;20196;-62
2022/09/26 03:40:09;;;;;;;11.73;10.50;;;;;;;12.41;100.00;-8539.59;5094774;28;20180;-62
2022/09/26 03:42:36;;;;;;;10.47;9.87;;;;;;;12.58;100.00;-8860.78;5094634;28;20249;-62
2022/09/26 03:45:07;;;;;;;12.73;11.00;;;;;;;12.48;100.00;-6941.50;5094333;28;20188;-63
2022/09/26 03:47:34;;;;;;;16.50;11.30;;;;;;;12.35;100.00;-5661.47;5094249;28;20195;-62
2022/09/26 03:50:01;;;;;;;20.73;11.20;;;;;;;12.31;100.00;-5661.28;5094531;28;20210;-62
2022/09/26 03:52:29;;;;;;;13.30;11.67;;;;;;;12.44;100.00;-4381.84;5094534;28;20207;-62
2022/09/26 03:54:56;;;;;;;20.33;10.23;;;;;;;12.44;100.00;-4701.88;5093974;28;20181;-63
2022/09/26 03:57:23;;;;;;;13.23;10.40;;;;;;;12.34;100.00;-3741.59;5076185;28;20195;-62
2022/09/26 03:59:50;;;;;;;28.07;11.10;;;;;;;12.42;100.00;-3101.38;5094233;28;20188;-62
2022/09/26 04:02:18;;;;;;;16.97;11.40;;;;;;;12.43;100.00;-3741.66;5094556;28;20189;-62
2022/09/26 04:04:45;;;;;;;14.87;12.30;;;;;;;12.36;100.00;-3421.50;5093840;28;20180;-62
2022/09/26 04:07:12;;;;;;;26.47;11.47;;;;;;;12.00;100.00;-4061.19;5093848;28;20184;-63
2022/09/26 04:09:41;;;;;;;16.27;11.13;;;;;;;12.17;100.00;-4061.41;5093987;28;20640;-63
2022/09/26 04:12:08;;;;;;;27.50;11.27;;;;;;;12.33;100.00;-3741.56;5093909;28;20570;-61
2022/09/26 04:14:35;;;;;;;12.67;10.67;;;;;;;12.43;100.00;-3421.53;5093848;28;20180;-62
2022/09/26 04:17:01;;;;;;;17.30;11.20;;;;;;;12.39;100.00;-3101.38;5093870;28;20188;-62
2022/09/26 04:19:28;;;;;;;20.03;11.60;;;;;;;12.36;100.00;-4381.69;5093542;28;20338;-63
2022/09/26 04:21:55;;;;;;;16.27;12.37;;;;;;;12.26;100.00;-5341.25;5093458;28;20191;-64
2022/09/26 04:24:22;;;;;;;31.43;14.13;;;;;;;12.17;100.00;-3421.47;5093973;28;20188;-63
2022/09/26 04:26:50;;;;;;;36.43;18.50;;;;;;;11.98;100.00;-3101.47;5093575;28;20195;-62
2022/09/26 04:29:17;;;;;;;22.30;13.00;;;;;;;12.04;100.00;-4700.94;5093442;28;20194;-63
2022/09/26 04:31:44;;;;;;;20.67;12.33;;;;;;;11.99;100.00;-5979.72;5093496;28;20214;-62
2022/09/26 04:34:13;;;;;;;24.07;12.60;;;;;;;12.10;100.00;-5980.22;5092778;28;20196;-62
2022/09/26 04:36:41;;;;;;;22.47;13.90;;;;;;;12.47;100.00;-5661.91;5093409;28;20607;-62
2022/09/26 04:39:09;;;;;;;28.87;14.23;;;;;;;13.10;100.00;-4383.03;5093398;28;20199;-62
2022/09/26 04:41:36;;;;;;;44.23;15.60;;;;;;;13.95;100.00;5576.34;5093510;28;20191;-62
2022/09/26 04:44:04;;;;;;;44.67;15.77;;;;;;;14.79;100.00;26276.59;5093066;28;20185;-62
2022/09/26 04:46:31;;;;;;;27.23;13.43;;;;;;;14.56;100.00;99995.56;5093056;28;20188;-62
2022/09/26 04:48:59;;;;;;;26.73;12.50;;;;;;;14.98;100.00;116013.91;5093075;28;20188;-63
2022/09/26 04:51:28;;;;;;;31.23;13.63;;;;;;;15.67;100.00;122820.38;5092872;28;20206;-63
2022/09/26 04:53:55;;;;;;;34.90;12.90;;;;;;;16.71;100.00;150238.09;5092875;28;20186;-62
2022/09/26 04:56:24;;;;;;;46.27;14.23;;;;;;;17.80;100.00;150511.28;5093135;28;20188;-63
2022/09/26 04:58:53;;;;;;;51.23;20.87;;;;;;;18.74;100.00;150747.84;5092776;28;20184;-64
2022/09/26 05:01:22;;;;;;;45.67;16.33;;;;;;;19.43;100.00;150922.22;5092794;28;20188;-61
2022/09/26 05:03:49;;;;;;;58.20;19.73;;;;;;;20.17;100.00;151108.03;5093020;28;20603;-63
2022/09/26 05:06:16;;;;;;;72.40;31.47;;;;;;;20.72;100.00;151245.59;5093003;28;20635;-64
2022/09/26 05:08:45;;;;;;;38.83;15.10;;;;;;;20.73;100.00;151248.16;5092649;28;20212;-63
2022/09/26 05:11:13;;;;;;;15.50;10.60;;;;;;;21.17;100.00;151360.34;5092683;28;20184;-65
2022/09/26 05:13:40;;;;;;;37.10;14.17;;;;;;;21.13;100.00;151350.09;5093074;28;20208;-65
2022/09/26 05:16:08;;;;;;;28.83;15.47;;;;;;;21.18;100.00;151362.84;5092774;28;20188;-64
2022/09/26 05:18:38;;;;;;;37.33;15.30;;;;;;;21.06;100.00;151332.22;5092454;28;20611;-65
2022/09/26 05:21:06;;;;;;;29.10;12.77;;;;;;;21.12;100.00;151346.25;5092779;28;20608;-65
2022/09/26 05:26:22;;;;;;;40.97;13.00;;;;;;;22.55;100.00;151708.38;5092660;28;20175;-65
2022/09/26 05:28:53;;;;;;;23.50;13.20;;;;;;;23.49;100.00;151945.75;5092845;28;20191;-65
2022/09/26 05:31:22;;;;;;;37.78;15.45;;;;;;;23.67;100.00;151990.44;5092581;28;20199;-65
2022/09/26 05:33:50;;;;;;;49.92;15.30;;;;;;;23.29;100.00;151893.41;5092555;28;20203;-65
2022/09/26 05:36:18;;;;;;;62.70;20.38;;;;;;;22.72;100.00;151750.50;5092267;28;20313;-64
2022/09/26 05:38:45;;;;;;;92.57;22.08;;;;;;;22.45;100.00;151681.59;5074575;28;20188;-64
2022/09/26 05:41:13;;;;;;;60.58;22.38;;;;;;;21.98;100.00;151564.25;5091968;28;20192;-54
2022/09/26 05:43:40;;;;;;;78.80;24.15;;;;;;;21.59;100.00;151464.81;5091851;28;20248;-54
2022/09/26 05:46:08;;;;;;;59.13;22.80;;;;;;;21.17;100.00;151360.34;5091999;28;20184;-64
2022/09/26 05:48:37;;;;;;;60.00;22.23;;;;;;;21.24;100.00;151376.88;5092187;28;20188;-65
2022/09/26 05:51:10;;;;;;;77.38;23.45;;;;;;;21.54;100.00;151453.34;5092186;28;20613;-65
2022/09/26 05:53:39;;;;;;;69.95;23.15;;;;;;;21.67;100.00;151485.22;5092116;28;20532;-67
2022/09/26 05:56:06;;;;;;;62.67;19.38;;;;;;;21.94;100.00;151552.81;5091849;28;20180;-66
2022/09/26 05:58:35;;;;;;;53.78;18.52;;;;;;;22.00;100.00;151569.38;5091895;28;20211;-65
2022/09/26 06:01:04;;;;;;;37.72;17.00;;;;;;;22.04;100.00;151579.56;5091928;28;20595;-66
2022/09/26 06:03:33;;;;;;;28.98;13.52;;;;;;;22.14;100.00;151603.81;5091958;28;20177;-66
2022/09/26 06:06:06;;;;;;;28.92;13.65;;;;;;;22.32;100.00;151650.97;5091840;28;20191;-66
2022/09/26 06:08:35;;;;;;;30.05;12.63;;;;;;;22.56;100.00;151709.66;5091806;28;20655;-66
2022/09/26 06:11:04;;;;;;;30.70;12.98;;;;;;;22.93;100.00;151802.78;5092019;28;20215;-66
2022/09/26 06:13:31;;;;;;;42.35;13.20;;;;;;;23.40;100.00;151922.72;5091713;28;20208;-65
2022/09/26 06:16:04;;;;;;;42.80;14.27;;;;;;;23.88;100.00;152044.03;5091429;28;20202;-66
2022/09/26 06:18:32;;;;;;;44.45;13.55;;;;;;;23.87;100.00;152040.19;5091377;28;20222;-66
2022/09/26 06:21:01;;;;;;;37.40;16.20;;;;;;;24.30;100.00;152150.06;5092023;28;20526;-64
2022/09/26 06:23:29;;;;;;;33.00;17.65;;;;;;;23.83;100.00;152031.28;5091827;28;20287;-63
2022/09/26 06:25:56;;;;;;;34.72;14.32;;;;;;;23.25;100.00;151883.19;5091759;28;20715;-62
2022/09/26 06:28:23;;;;;;;13.30;11.63;;;;;;;23.48;100.00;151943.19;5091704;28;20649;-61
2022/09/26 06:30:50;;;;;;;18.88;12.50;;;;;;;23.74;100.00;152008.28;5091978;28;20192;-62
2022/09/26 06:33:17;;;;;;;16.27;10.65;;;;;;;23.88;100.00;152044.03;5091753;28;20738;-62
2022/09/26 06:35:44;;;;;;;9.30;7.38;;;;;;;24.22;93.03;152128.34;5091808;28;20184;-66
2022/09/26 06:38:11;;;;;;;13.23;7.50;;;;;;;24.31;92.51;152151.34;5091933;28;20554;-67
2022/09/26 06:40:40;;;;;;;9.57;7.15;;;;;;;24.29;93.68;152146.19;5074069;28;20266;-66
2022/09/26 06:43:06;;;;;;;16.63;7.60;;;;;;;24.06;97.71;152089.97;5091619;28;20184;-67
2022/09/26 06:45:37;;;;;;;15.88;7.68;;;;;;;24.01;96.45;152077.25;5091792;28;20188;-65
2022/09/26 06:48:06;;;;;;;16.58;7.45;;;;;;;23.97;99.69;152067.03;5092046;28;20195;-67
2022/09/26 06:50:35;;;;;;;13.15;7.50;;;;;;;23.71;97.03;152000.66;5091849;28;20240;-66
2022/09/26 06:53:03;;;;;;;7.63;6.10;;;;;;;23.61;94.44;151975.09;5092755;28;20204;-66
2022/09/26 06:55:31;;;;;;;6.47;6.00;;;;;;;23.45;94.04;151935.56;5091534;28;20639;-66
2022/09/26 06:57:59;;;;;;;11.80;6.82;;;;;;;23.55;99.23;151959.81;5094770;28;20222;-67
2022/09/26 07:00:28;;;;;;;6.28;5.78;;;;;;;23.47;89.95;151940.63;5095364;28;20188;-66
2022/09/26 07:02:56;;;;;;;12.10;6.47;;;;;;;23.71;91.26;152000.66;5095460;28;20180;-66
2022/09/26 07:05:24;;;;;;;8.30;5.82;;;;;;;23.93;86.04;152056.75;5095503;28;20650;-66
2022/09/26 07:07:52;;;;;;;10.13;6.35;;;;;;;24.02;81.16;152079.75;5094925;28;20192;-67
2022/09/26 07:10:21;;;;;;;7.22;5.97;;;;;;;24.55;78.04;152213.91;5095315;28;20333;-66
2022/09/26 07:12:48;;;;;;;12.20;6.78;;;;;;;24.81;74.88;152279.03;5094874;28;20211;-67
2022/09/26 07:15:19;;;;;;;29.58;8.40;;;;;;;24.80;75.94;152275.19;5095063;28;20577;-66
2022/09/26 07:17:49;;;;;;;14.75;8.07;;;;;;;25.11;79.03;152354.44;5095255;28;20185;-66
2022/09/26 07:20:18;;;;;;;21.80;8.15;;;;;;;25.26;74.82;152391.47;5094719;28;20191;-66
2022/09/26 07:22:45;;;;;;;14.20;7.80;;;;;;;25.49;71.33;152450.28;5095144;28;20650;-65
2022/09/26 07:25:14;;;;;;;9.02;6.43;;;;;;;25.61;67.91;152480.97;5085222;28;20198;-65
2022/09/26 07:27:42;;;;;;;19.38;7.55;;;;;;;25.74;70.36;152512.94;5084960;28;20452;-65
2022/09/26 07:30:10;;;;;;;25.33;8.88;;;;;;;26.13;71.84;152611.38;5100703;28;20612;-65
2022/09/26 07:32:43;;;;;;;19.42;7.97;;;;;;;26.36;69.52;152671.47;5110676;28;20213;-66
2022/09/26 07:35:10;;;;;;;33.25;9.95;;;;;;;26.33;72.12;152663.81;5098378;28;20250;-67
2022/09/26 07:37:37;;;;;;;16.95;8.65;;;;;;;26.29;66.22;152653.59;5074238;28;20606;-63
2022/09/26 07:40:04;;;;;;;14.80;11.95;;;;;;;25.95;69.89;152565.31;5074792;28;20189;-64
2022/09/26 07:42:31;;;;;;;11.98;9.20;;;;;;;26.15;65.95;152617.75;5085093;28;20639;-65
2022/09/26 07:44:58;;;;;;;11.90;7.88;;;;;;;25.97;67.92;152570.47;5094921;28;20204;-66
2022/09/26 07:50:11;;;;;;;10.02;6.30;;;;;;;25.93;62.35;152562.75;5105567;28;20692;-64
2022/09/26 07:52:41;;;;;;;11.82;7.43;;;;;;;26.09;59.23;152601.13;5114612;28;20210;-65
2022/09/26 07:55:08;;;;;;;13.15;6.80;;;;;;;26.04;60.61;152588.34;5114033;28;20223;-66
2022/09/26 07:57:35;;;;;;;11.20;6.63;;;;;;;26.27;61.06;152647.16;5114544;28;20519;-67
2022/09/26 08:00:05;;;;;;;6.97;6.38;;;;;;;26.17;61.44;152621.59;5114260;28;20199;-67
2022/09/26 08:02:34;;;;;;;13.95;5.35;;;;;;;26.16;62.03;152619.03;5114758;28;20193;-64
2022/09/26 08:05:02;;;;;;;4.32;4.03;;;;;;;25.79;60.15;152525.72;5114688;28;20203;-67
2022/09/26 08:07:31;;;;;;;4.25;3.75;;;;;;;26.04;62.91;152588.34;5114270;28;20191;-67
2022/09/26 08:10:00;;;;;;;3.92;3.72;;;;;;;26.50;59.98;152704.72;5114825;28;20197;-67
2022/09/26 08:12:30;;;;;;;4.05;3.85;;;;;;;26.45;61.46;152691.94;5114203;28;20188;-66
2022/09/26 08:15:00;;;;;;;3.53;3.42;;;;;;;26.97;59.94;152823.72;5115576;28;20336;-66
2022/09/26 08:17:31;;;;;;;3.63;3.53;;;;;;;27.02;55.06;152836.50;5093194;28;20196;-66
2022/09/26 08:19:58;;;;;;;7.28;3.47;;;;;;;27.30;52.58;152908.13;5076983;28;20239;-67
2022/09/26 08:22:25;;;;;;;3.83;3.63;;;;;;;27.48;50.87;152954.25;5080640;28;20200;-66
2022/09/26 08:24:53;;;;;;;6.47;3.55;;;;;;;27.52;51.39;152964.50;5076296;28;20197;-66
2022/09/26 08:27:21;;;;;;;4.10;3.90;;;;;;;27.92;51.54;153064.31;5061613;28;20543;-66
2022/09/26 08:29:49;;;;;;;3.75;3.65;;;;;;;28.30;49.97;153161.66;5080111;28;20663;-66
2022/09/26 08:32:17;;;;;;;6.40;3.70;;;;;;;29.05;50.73;153352.47;5078691;28;20195;-66
2022/09/26 08:34:44;;;;;;;4.30;3.60;;;;;;;29.90;46.92;153566.50;5073613;28;20212;-66
2022/09/26 08:37:11;;;;;;;5.40;3.97;;;;;;;30.38;42.67;153689.50;5075308;28;20193;-66
2022/09/26 08:39:38;;;;;;;4.10;3.80;;;;;;;30.18;43.36;153638.25;5080914;28;20199;-65
2022/09/26 08:42:33;;;;;;;3.75;3.55;;;;;;;29.97;43.80;153584.41;5074098;28;20547;-66
2022/09/26 08:48:42;;;;;;;3.35;3.15;;;;;;;31.03;42.54;153853.69;5077451;28;20193;-66
2022/09/26 08:51:20;;;;;;;3.53;3.30;;;;;;;31.43;42.04;153953.72;5086531;28;20196;-66
2022/09/26 08:53:52;;;;;;;4.00;3.75;;;;;;;32.44;41.37;154211.69;5081507;28;20287;-66
2022/09/26 08:56:21;;;;;;;4.60;4.38;;;;;;;32.40;39.80;154200.16;5086302;28;20289;-64
2022/09/26 08:58:53;;;;;;;4.93;3.80;;;;;;;32.91;38.85;154329.81;5078739;28;20193;-64
2022/09/26 09:01:26;;;;;;;4.32;4.05;;;;;;;32.77;40.20;154295.16;5072470;28;20196;-65
2022/09/26 09:03:56;;;;;;;4.65;4.43;;;;;;;32.58;39.46;154246.34;5085692;28;20278;-66
2022/09/26 09:06:27;;;;;;;7.07;6.22;;;;;;;33.26;39.71;154418.47;5076043;28;20223;-65
2022/09/26 09:08:56;;;;;;;13.30;4.40;;;;;;;33.80;37.51;154557.19;5073099;28;20207;-65
2022/09/26 09:11:44;;;;;;;4.68;4.40;;;;;;;33.56;38.06;154494.22;5072289;28;20220;-65
2022/09/26 09:14:28;;;;;;;4.32;3.67;;;;;;;34.21;38.10;154661.25;5088141;28;20215;-64
2022/09/26 09:17:07;;;;;;;3.97;3.67;;;;;;;35.45;35.68;154974.91;5092258;28;20188;-65
2022/09/26 09:19:43;;;;;;;5.07;3.78;;;;;;;35.07;36.23;154879.75;5092047;28;20231;-65
2022/09/26 09:22:36;;;;;;;3.85;3.63;;;;;;;34.65;36.21;154773.09;5092452;28;20179;-66
2022/09/26 09:25:09;;;;;;;3.53;3.33;;;;;;;34.92;35.32;154839.91;5092827;28;20231;-64
2022/09/26 09:27:50;;;;;;;4.00;3.80;;;;;;;35.43;35.79;154971.06;5092192;28;20188;-66
2022/09/26 09:30:22;;;;;;;4.22;3.78;;;;;;;36.02;34.26;155120.25;5092199;28;20253;-66
2022/09/26 09:32:54;;;;;;;3.95;3.72;;;;;;;35.61;35.43;155016.03;5093651;28;20188;-65
2022/09/26 09:35:38;;;;;;;11.57;4.72;;;;;;;36.51;34.60;155246.31;5112553;28;20190;-66
2022/09/26 09:38:09;;;;;;;4.93;4.53;;;;;;;36.74;33.91;155302.97;5112537;28;20187;-65
2022/09/26 09:40:41;;;;;;;9.43;4.40;;;;;;;36.91;32.42;155348.00;5112486;28;20598;-65
2022/09/26 09:43:16;;;;;;;6.25;4.32;;;;;;;36.11;34.11;155144.69;5112450;28;20206;-64
2022/09/26 09:45:48;;;;;;;5.15;4.18;;;;;;;34.50;34.99;154734.47;5112415;28;20237;-66
2022/09/26 09:48:15;;;;;;;5.70;4.07;;;;;;;34.43;36.03;154716.50;5112329;28;20186;-65
2022/09/26 09:50:53;;;;;;;8.77;4.93;;;;;;;34.53;36.26;154742.22;5094420;28;20197;-64
2022/09/26 09:53:33;;;;;;;5.70;4.43;;;;;;;35.47;35.10;154980.06;5097513;28;20582;-65
2022/09/26 09:56:12;;;;;;;6.40;4.68;;;;;;;34.20;36.26;154657.44;5080773;28;20204;-66
2022/09/26 09:58:53;;;;;;;4.55;3.92;;;;;;;33.91;37.04;154585.41;5071953;28;20188;-65
2022/09/26 10:01:27;;;;;;;4.75;4.53;;;;;;;33.43;38.84;154463.41;5080302;28;20680;-65
2022/09/26 10:04:03;;;;;;;4.95;4.18;;;;;;;34.27;37.83;154676.69;5084813;28;20257;-65
2022/09/26 10:06:31;;;;;;;4.85;4.50;;;;;;;34.08;37.03;154627.81;5092270;28;20291;-65
2022/09/26 10:09:04;;;;;;;3.42;3.33;;;;;;;34.59;33.68;154756.31;5091765;28;20237;-66
2022/09/26 10:11:40;;;;;;;7.32;5.32;;;;;;;34.44;35.89;154719.06;5091187;28;20227;-65
2022/09/26 10:14:13;;;;;;;5.18;4.53;;;;;;;33.93;36.88;154590.56;5091074;28;20574;-66
2022/09/26 10:17:17;;;;;;;4.25;4.10;;;;;;;33.53;36.61;154487.75;5091537;28;20653;-66
2022/09/26 10:19:44;;;;;;;4.93;4.40;;;;;;;33.78;36.49;154550.78;5091177;28;20293;-66
2022/09/26 10:22:18;;;;;;;5.18;4.88;;;;;;;33.47;37.74;154472.38;5089524;28;20215;-66
2022/09/26 10:24:47;;;;;;;7.30;5.05;;;;;;;33.57;38.43;154498.03;5086465;28;20206;-66
2022/09/26 10:27:18;;;;;;;7.15;4.95;;;;;;;33.57;39.09;154496.78;5091596;28;20193;-64
2022/09/26 10:29:46;;;;;;;6.85;4.82;;;;;;;33.35;39.91;154442.88;5091174;28;20195;-66
2022/09/26 10:32:13;;;;;;;5.22;4.90;;;;;;;32.44;42.70;154211.69;5094185;28;20191;-66
2022/09/26 10:34:41;;;;;;;7.25;4.70;;;;;;;32.38;44.34;154195.03;5096005;28;20678;-67
2022/09/26 10:37:23;;;;;;;5.40;4.90;;;;;;;32.44;44.41;154210.41;5077836;28;20206;-61
2022/09/26 10:42:38;;;;;;;6.22;5.60;;;;;;;31.74;45.20;154033.34;5095421;28;20494;-61
2022/09/26 10:45:14;;;;;;;6.47;5.30;;;;;;;31.21;46.25;153898.59;5095150;28;20212;-57
2022/09/26 10:47:45;;;;;;;4.60;4.40;;;;;;;30.49;46.05;153716.47;5095235;28;20279;-61
2022/09/26 10:50:17;;;;;;;5.93;4.72;;;;;;;30.01;49.10;153593.38;5095193;28;20200;-61
2022/09/26 10:52:48;;;;;;;4.63;4.32;;;;;;;29.75;50.64;153529.25;5095152;28;20191;-62
2022/09/26 10:55:24;;;;;;;5.88;5.57;;;;;;;29.52;52.24;153469.06;5094828;28;20613;-62
2022/09/26 10:57:54;;;;;;;4.97;4.75;;;;;;;29.53;56.57;153471.63;5095466;28;20539;-62
2022/09/26 11:00:36;;;;;;;5.45;4.95;;;;;;;29.83;58.17;153548.50;5095437;28;20191;-65
2022/09/26 11:03:05;;;;;;;7.95;5.05;;;;;;;28.83;59.77;153294.81;5095401;28;20602;-64
2022/09/26 11:08:20;;;;;;;6.20;4.55;;;;;;;27.33;63.08;152915.78;5095195;28;20183;-61
2022/09/26 11:10:48;;;;;;;5.18;4.60;;;;;;;26.50;67.36;152706.00;5095169;28;20188;-61
2022/09/26 11:13:17;;;;;;;4.55;4.25;;;;;;;26.03;69.75;152585.78;5095080;28;20184;-61
2022/09/26 11:15:52;;;;;;;4.10;3.80;;;;;;;25.88;71.74;152550.03;5077108;28;20615;-61
2022/09/26 11:18:27;;;;;;;5.20;5.00;;;;;;;25.28;78.48;152397.91;5094988;28;20231;-61
2022/09/26 11:21:01;;;;;;;5.00;4.70;;;;;;;25.52;78.88;152457.94;5094856;28;20198;-61
2022/09/26 11:23:37;;;;;;;7.32;5.22;;;;;;;25.28;80.72;152396.59;5095221;28;20226;-60
2022/09/26 11:26:17;;;;;;;5.60;4.88;;;;;;;25.08;82.10;152346.75;5094458;28;20219;-62
2022/09/26 11:28:50;;;;;;;5.03;4.63;;;;;;;25.36;83.80;152417.03;5076576;28;20645;-61
2022/09/26 11:31:24;;;;;;;5.20;5.00;;;;;;;25.13;84.20;152358.25;5094690;28;20657;-60
2022/09/26 11:33:52;;;;;;;5.25;4.93;;;;;;;25.10;86.20;152351.88;5094169;28;20213;-61
2022/09/26 11:36:40;;;;;;;8.73;5.53;;;;;;;25.02;86.28;152332.72;5076866;28;20184;-61
2022/09/26 11:39:25;;;;;;;5.03;4.82;;;;;;;24.93;85.18;152309.72;5094186;28;20727;-61
2022/09/26 11:42:08;;;;;;;5.32;4.72;;;;;;;24.33;90.60;152156.41;5093956;28;20184;-62
2022/09/26 11:44:57;;;;;;;5.53;5.05;;;;;;;24.10;95.98;152100.16;5094451;28;20180;-61
2022/09/26 11:47:40;;;;;;;6.97;6.40;;;;;;;24.02;96.81;152079.75;5091915;28;20199;-62